Time;durP1;ratioP1;P1;durP2;ratioP2;P2;SDS_P1;SDS_P2;PMS_P1;PMS_P2;Temp;Humidity;BMP_temperature;BMP_pressure;BME280_temperature;BME280_humidity;BME280_pressure;Samples;Min_cycle;Max_cycle;Signal;HPM_P1;HPM_P2
2022/07/16 00:02:38;;;;;;;3.50;1.85;;;;;;;12.85;100.00;99716.66;1702703;83;21039;-62
2022/07/16 00:05:06;;;;;;;3.62;1.77;;;;;;;12.89;100.00;99721.78;1718041;82;21095;-60
2022/07/16 00:07:32;;;;;;;4.35;1.90;;;;;;;12.92;100.00;99720.41;1721941;82;21471;-58
2022/07/16 00:09:59;;;;;;;3.08;1.47;;;;;;;12.97;100.00;99716.25;1736938;82;21036;-60
2022/07/16 00:12:26;;;;;;;4.03;2.15;;;;;;;13.00;100.00;99713.52;1738177;81;21035;-59
2022/07/16 00:14:53;;;;;;;3.98;1.95;;;;;;;13.01;100.00;99713.21;1734833;81;21094;-60
2022/07/16 00:17:19;;;;;;;4.35;2.08;;;;;;;13.02;100.00;99720.86;1715161;81;21090;-61
2022/07/16 00:19:46;;;;;;;;;;;;;;;13.01;100.00;99724.14;1733973;82;21813;-59
2022/07/16 00:22:12;;;;;;;6.85;1.77;;;;;;;13.00;100.00;99728.00;1728319;82;20473;-60
2022/07/16 00:24:39;;;;;;;5.35;1.72;;;;;;;12.94;100.00;99722.30;1738569;81;21456;-60
2022/07/16 00:27:06;;;;;;;3.80;1.80;;;;;;;12.93;100.00;99728.31;1727436;81;21013;-61
2022/07/16 00:29:32;;;;;;;5.03;1.90;;;;;;;12.92;100.00;99723.15;1665086;85;21066;-60
2022/07/16 00:31:59;;;;;;;;;;;;;;;12.89;100.00;99726.45;1679034;85;21621;-60
2022/07/16 00:34:25;;;;;;;2.83;1.60;;;;;;;12.86;100.00;99727.83;1680239;84;20454;-60
2022/07/16 00:36:52;;;;;;;;;;;;;;;12.80;100.00;99724.88;1733141;82;21015;-60
2022/07/16 00:39:18;;;;;;;2.33;1.50;;;;;;;12.78;100.00;99731.74;1726339;82;20119;-60
2022/07/16 00:41:47;;;;;;;3.95;1.75;;;;;;;12.73;100.00;99729.04;1730867;82;21024;-61
2022/07/16 00:44:16;;;;;;;2.85;1.70;;;;;;;12.69;100.00;99726.61;1728060;81;21135;-60
2022/07/16 00:46:43;;;;;;;3.65;1.55;;;;;;;12.62;100.00;99732.41;1689285;83;21541;-59
2022/07/16 00:49:12;;;;;;;3.80;1.72;;;;;;;12.58;100.00;99723.14;1680434;85;21564;-60
2022/07/16 00:51:47;;;;;;;2.55;1.45;;;;;;;12.58;100.00;99723.14;1736910;81;21000;-61
2022/07/16 00:54:13;;;;;;;5.37;1.85;;;;;;;12.58;100.00;99725.88;1727193;82;21118;-60
2022/07/16 00:56:41;;;;;;;3.67;1.52;;;;;;;12.54;100.00;99730.27;1724741;82;21059;-60
2022/07/16 00:59:07;;;;;;;;;;;;;;;12.52;100.00;99728.94;1736017;82;21118;-59
2022/07/16 01:01:34;;;;;;;3.65;1.70;;;;;;;12.48;100.00;99723.23;1732085;81;20128;-60
2022/07/16 01:04:04;;;;;;;4.90;1.62;;;;;;;12.44;100.00;99726.26;1724350;82;21106;-60
2022/07/16 01:06:31;;;;;;;2.58;1.70;;;;;;;12.38;100.00;99719.21;1732626;81;21043;-60
2022/07/16 01:08:59;;;;;;;3.30;1.70;;;;;;;12.37;100.00;99720.30;1723333;82;21039;-60
2022/07/16 01:11:25;;;;;;;3.55;1.40;;;;;;;12.35;100.00;99726.06;1741775;81;20956;-60
2022/07/16 01:13:52;;;;;;;3.22;1.72;;;;;;;12.32;100.00;99725.81;1673940;85;21065;-60
2022/07/16 01:16:18;;;;;;;;;;;;;;;12.26;100.00;99726.37;1729841;82;20952;-58
2022/07/16 01:18:45;;;;;;;4.80;2.00;;;;;;;12.24;100.00;99719.58;1726239;81;20410;-60
2022/07/16 01:21:13;;;;;;;5.28;1.92;;;;;;;12.21;100.00;99720.97;1728489;81;20992;-61
2022/07/16 01:23:40;;;;;;;3.42;1.98;;;;;;;12.22;100.00;99716.33;1735591;81;21581;-60
2022/07/16 01:26:07;;;;;;;4.15;1.60;;;;;;;12.23;100.00;99726.13;1730328;81;21068;-59
2022/07/16 01:28:33;;;;;;;4.55;1.80;;;;;;;12.21;100.00;99723.70;1743975;81;21127;-60
2022/07/16 01:31:00;;;;;;;4.30;1.70;;;;;;;12.19;100.00;99720.42;1731350;81;21086;-59
2022/07/16 01:33:31;;;;;;;4.08;1.80;;;;;;;12.15;100.00;99728.11;1731638;82;21094;-60
2022/07/16 01:36:08;;;;;;;2.80;1.87;;;;;;;12.10;100.00;99724.03;1732502;81;21035;-59
2022/07/16 01:38:40;;;;;;;2.85;1.70;;;;;;;12.08;100.00;99727.61;1733258;82;21098;-60
2022/07/16 01:41:07;;;;;;;4.78;2.20;;;;;;;12.03;100.00;99731.17;1730882;82;21467;-59
2022/07/16 01:43:34;;;;;;;5.25;2.15;;;;;;;11.98;100.00;99733.91;1753183;81;21075;-60
2022/07/16 01:46:00;;;;;;;;;;;;;;;11.93;100.00;99732.59;1736718;82;21071;-61
2022/07/16 01:48:27;;;;;;;4.08;2.15;;;;;;;11.91;100.00;99730.67;1735356;82;20095;-59
2022/07/16 01:50:53;;;;;;;7.37;2.10;;;;;;;11.87;100.00;99732.33;1717487;81;21585;-61
2022/07/16 01:53:20;;;;;;;3.37;2.00;;;;;;;11.85;100.00;99733.98;1689764;84;21667;-60
2022/07/16 01:55:47;;;;;;;3.55;1.60;;;;;;;11.85;100.00;99723.62;1718785;82;20975;-60
2022/07/16 01:58:14;;;;;;;4.47;1.85;;;;;;;11.87;100.00;99734.51;1740080;82;21063;-60
2022/07/16 02:00:43;;;;;;;3.20;1.98;;;;;;;11.88;100.00;99738.06;1735124;81;21047;-60
2022/07/16 02:03:10;;;;;;;3.35;2.10;;;;;;;11.86;100.00;99732.91;1680415;84;21026;-60
2022/07/16 02:05:37;;;;;;;3.52;2.02;;;;;;;11.85;100.00;99730.44;1719776;82;21044;-60
2022/07/16 02:08:04;;;;;;;;;;;;;;;11.87;100.00;99733.69;1746435;81;21011;-60
2022/07/16 02:10:31;;;;;;;2.75;2.10;;;;;;;11.89;100.00;99739.70;1716048;82;20105;-60
2022/07/16 02:12:58;;;;;;;3.87;2.25;;;;;;;11.84;100.00;99740.53;1731359;82;21544;-60
2022/07/16 02:15:24;;;;;;;3.52;1.82;;;;;;;11.83;100.00;99742.19;1730395;82;20988;-60
2022/07/16 02:17:51;;;;;;;4.37;1.87;;;;;;;11.79;100.00;99729.66;1741638;82;21416;-60
2022/07/16 02:20:19;;;;;;;2.98;1.90;;;;;;;11.82;100.00;99741.37;1736404;81;21055;-60
2022/07/16 02:22:46;;;;;;;4.08;1.92;;;;;;;11.81;100.00;99741.09;1664105;84;21003;-60
2022/07/16 02:25:13;;;;;;;3.52;1.80;;;;;;;11.84;100.00;99739.16;1736558;82;21071;-60
2022/07/16 02:28:05;;;;;;;;;;;;;;;11.89;100.00;99734.24;1732745;81;21455;-60
2022/07/16 02:30:09;;;;;;;4.25;1.85;;;;;;;11.91;100.00;99734.22;1728743;82;20087;-60
2022/07/16 02:32:36;;;;;;;4.15;2.05;;;;;;;11.91;100.00;99738.86;1733010;81;20984;-60
2022/07/16 02:35:04;;;;;;;4.85;2.12;;;;;;;11.90;100.00;99739.41;1735427;81;21601;-60
2022/07/16 02:37:31;;;;;;;4.50;1.98;;;;;;;11.87;100.00;99737.23;1730295;81;21027;-59
2022/07/16 02:39:57;;;;;;;;;;;;;;;11.87;100.00;99739.97;1733902;81;21113;-59
2022/07/16 02:42:24;;;;;;;3.67;2.02;;;;;;;11.90;100.00;99735.88;1734816;82;20154;-59
2022/07/16 02:44:50;;;;;;;;;;;;;;;11.89;100.00;99741.88;1734470;81;21122;-59
2022/07/16 02:47:16;;;;;;;4.28;1.90;;;;;;;11.92;100.00;99736.41;1718444;82;20140;-60
2022/07/16 02:49:43;;;;;;;4.78;1.77;;;;;;;11.89;100.00;99744.61;1729499;82;21091;-58
2022/07/16 02:52:09;;;;;;;;;;;;;;;11.92;100.00;99735.86;1731898;81;21040;-59
2022/07/16 02:54:37;;;;;;;3.92;1.70;;;;;;;11.95;100.00;99733.94;1714668;82;20385;-58
2022/07/16 02:57:04;;;;;;;6.45;2.02;;;;;;;11.94;100.00;99736.38;1719821;81;21070;-58
2022/07/16 02:59:30;;;;;;;4.50;1.67;;;;;;;11.97;100.00;99740.48;1735452;81;21095;-58
2022/07/16 03:01:57;;;;;;;4.15;2.00;;;;;;;12.04;100.00;99745.09;1728291;82;21059;-59
2022/07/16 03:04:23;;;;;;;6.22;2.00;;;;;;;12.11;100.00;99752.42;1730512;81;21048;-58
2022/07/16 03:06:50;;;;;;;5.33;1.85;;;;;;;12.17;100.00;99760.02;1731929;82;21059;-58
2022/07/16 03:09:16;;;;;;;;;;;;;;;12.21;100.00;99755.08;1726740;82;21638;-58
2022/07/16 03:11:43;;;;;;;5.75;2.00;;;;;;;12.27;100.00;99761.31;1728268;82;20105;-59
2022/07/16 03:14:10;;;;;;;4.28;1.65;;;;;;;12.29;100.00;99751.73;1729381;81;21047;-58
2022/07/16 03:16:37;;;;;;;3.98;2.00;;;;;;;12.37;100.00;99754.42;1728610;82;20960;-59
2022/07/16 03:19:03;;;;;;;;;;;;;;;12.46;100.00;99757.66;1734405;82;21669;-59
2022/07/16 03:21:30;;;;;;;3.08;1.77;;;;;;;12.56;100.00;99755.40;1735695;82;20474;-59
2022/07/16 03:23:56;;;;;;;;;;;;;;;12.63;100.00;99766.81;1664492;85;21064;-59
2022/07/16 03:26:22;;;;;;;3.95;1.55;;;;;;;12.73;100.00;99761.81;1696046;83;20140;-59
2022/07/16 03:28:50;;;;;;;6.00;1.80;;;;;;;12.85;100.00;99768.56;1642818;86;21083;-59
2022/07/16 03:31:17;;;;;;;2.80;1.80;;;;;;;13.02;100.00;99768.69;1730773;81;21050;-59
2022/07/16 03:33:44;;;;;;;5.95;1.35;;;;;;;13.17;100.00;99777.60;1732947;81;21072;-59
2022/07/16 03:36:11;;;;;;;2.80;1.67;;;;;;;13.38;100.00;99769.47;1724100;81;21036;-59
2022/07/16 03:41:23;;;;;;;2.77;1.55;;;;;;;13.74;100.00;99772.63;1724973;82;21546;-58
2022/07/16 03:43:50;;;;;;;4.03;1.87;;;;;;;13.91;100.00;99772.14;1660766;85;21095;-58
2022/07/16 03:46:16;;;;;;;;;;;;;;;14.14;100.00;99781.41;1725554;82;21062;-59
2022/07/16 03:48:43;;;;;;;5.97;1.52;;;;;;;14.47;100.00;99770.04;1718334;82;20146;-59
2022/07/16 03:51:11;;;;;;;2.62;1.50;;;;;;;14.84;100.00;99779.03;1741194;80;21511;-60
2022/07/16 03:53:37;;;;;;;4.00;1.60;;;;;;;15.23;100.00;99773.16;1734018;80;21044;-60
2022/07/16 03:56:05;;;;;;;;;;;;;;;15.59;100.00;99776.10;1745981;82;21034;-60
2022/07/16 03:58:31;;;;;;;5.00;1.32;;;;;;;15.96;100.00;99781.97;1734902;82;20136;-60
2022/07/16 04:00:58;;;;;;;5.08;1.55;;;;;;;16.28;100.00;99779.08;1741652;82;21050;-60
2022/07/16 04:03:26;;;;;;;3.22;1.55;;;;;;;16.68;100.00;99773.82;1734128;82;21996;-60
2022/07/16 04:05:52;;;;;;;4.72;1.72;;;;;;;17.07;100.00;99782.77;1733634;80;21078;-60
2022/07/16 04:08:19;;;;;;;5.50;1.52;;;;;;;17.46;100.00;99769.64;1730633;82;21049;-60
2022/07/16 04:10:45;;;;;;;5.00;1.40;;;;;;;17.80;100.00;99760.18;1754598;80;21094;-60
2022/07/16 04:13:13;;;;;;;2.77;1.70;;;;;;;18.08;100.00;99748.34;1743419;81;20991;-60
2022/07/16 04:15:40;;;;;;;5.25;1.52;;;;;;;18.32;100.00;99746.77;1730617;82;21059;-59
2022/07/16 04:18:06;;;;;;;2.87;1.25;;;;;;;18.61;100.00;99741.22;1734502;82;21019;-59
2022/07/16 04:20:34;;;;;;;6.35;1.62;;;;;;;18.82;100.00;99734.72;1761772;80;21538;-60
2022/07/16 04:23:00;;;;;;;3.70;1.32;;;;;;;19.14;100.00;99740.27;1745855;80;21381;-59
2022/07/16 04:25:27;;;;;;;4.40;1.32;;;;;;;19.44;100.00;99733.48;1738324;82;21067;-60
2022/07/16 04:27:53;;;;;;;6.40;1.77;;;;;;;19.75;100.00;99734.81;1739511;82;20960;-60
2022/07/16 04:30:20;;;;;;;2.10;1.20;;;;;;;20.02;100.00;99731.31;1736475;80;21050;-60
2022/07/16 04:32:46;;;;;;;5.10;1.70;;;;;;;20.22;100.00;99720.88;1729248;82;21043;-60
2022/07/16 04:35:13;;;;;;;2.50;1.37;;;;;;;20.44;100.00;99725.31;1726157;82;21170;-60
2022/07/16 04:37:40;;;;;;;3.62;1.52;;;;;;;20.73;100.00;99726.59;1745818;82;21488;-60
2022/07/16 04:40:08;;;;;;;3.65;1.57;;;;;;;20.94;100.00;99714.91;1732593;82;21561;-60
2022/07/16 04:42:40;;;;;;;4.47;1.55;;;;;;;21.09;100.00;99721.19;1708441;82;20983;-60
2022/07/16 04:45:09;;;;;;;3.12;1.40;;;;;;;21.25;100.00;99716.67;1741876;82;21063;-60
2022/07/16 04:47:38;;;;;;;3.70;1.40;;;;;;;21.37;100.00;99715.05;1735754;82;21073;-60
2022/07/16 04:50:07;;;;;;;4.85;1.50;;;;;;;21.26;100.00;99711.34;1738318;80;21907;-60
2022/07/16 04:52:33;;;;;;;4.70;1.40;;;;;;;21.23;100.00;99707.06;1718773;82;21597;-61
2022/07/16 04:55:00;;;;;;;3.12;1.40;;;;;;;21.33;100.00;99708.82;1741813;82;21578;-60
2022/07/16 04:57:27;;;;;;;2.10;1.20;;;;;;;21.57;100.00;99719.14;1725172;82;21458;-60
2022/07/16 04:59:54;;;;;;;4.90;1.52;;;;;;;21.81;100.00;99714.17;1727287;82;21097;-60
2022/07/16 05:05:07;;;;;;;3.15;1.40;;;;;;;21.55;100.00;99711.73;1725829;82;21090;-60
2022/07/16 05:07:35;;;;;;;3.08;1.20;;;;;;;21.46;100.00;99712.44;1734674;82;21451;-60
2022/07/16 05:10:02;;;;;;;3.08;1.35;;;;;;;21.43;100.00;99716.47;1743815;82;21031;-60
2022/07/16 05:12:29;;;;;;;2.12;1.10;;;;;;;21.69;100.00;99715.55;1735101;82;21510;-60
2022/07/16 05:14:56;;;;;;;2.77;1.12;;;;;;;22.47;100.00;99714.67;1725018;82;21046;-60
2022/07/16 05:17:23;;;;;;;5.05;1.30;;;;;;;22.47;100.00;99714.67;1727623;82;21400;-61
2022/07/16 05:19:49;;;;;;;2.52;1.20;;;;;;;22.66;100.00;99709.30;1745261;82;21054;-60
2022/07/16 05:22:16;;;;;;;3.92;1.47;;;;;;;22.77;100.00;99709.06;1726313;82;20987;-60
2022/07/16 05:24:42;;;;;;;3.67;1.40;;;;;;;22.72;100.00;99703.75;1729702;82;21039;-60
2022/07/16 05:27:09;;;;;;;3.87;1.27;;;;;;;22.62;100.00;99713.13;1691590;83;21014;-60
2022/07/16 05:29:36;;;;;;;3.58;1.40;;;;;;;22.44;100.00;99709.83;1667007;85;21060;-60
2022/07/16 05:32:04;;;;;;;3.65;1.55;;;;;;;22.35;100.00;99718.06;1693724;83;21014;-61
2022/07/16 05:34:30;;;;;;;4.37;1.32;;;;;;;22.14;100.00;99720.39;1670269;85;21055;-60
2022/07/16 05:36:57;;;;;;;5.45;1.70;;;;;;;21.98;100.00;99718.12;1707823;83;20971;-60
2022/07/16 05:39:24;;;;;;;3.52;1.20;;;;;;;22.46;100.00;99720.59;1715165;83;21102;-60
2022/07/16 05:41:51;;;;;;;4.45;1.60;;;;;;;22.46;100.00;99720.59;1708607;82;21047;-60
2022/07/16 05:44:19;;;;;;;2.70;1.20;;;;;;;22.60;100.00;99721.78;1712301;83;21074;-60
2022/07/16 05:46:46;;;;;;;5.42;1.50;;;;;;;22.87;100.00;99714.67;1668088;85;21067;-60
2022/07/16 05:49:12;;;;;;;2.90;1.20;;;;;;;22.97;100.00;99704.45;1661565;85;21109;-60
2022/07/16 05:51:40;;;;;;;2.40;0.90;;;;;;;22.99;100.00;99705.49;1675819;85;21582;-60
2022/07/16 05:54:07;;;;;;;3.80;1.30;;;;;;;23.37;100.00;99703.52;1684094;83;21151;-60
2022/07/16 05:56:33;;;;;;;4.62;1.40;;;;;;;23.67;100.00;99697.18;1705512;83;21796;-60
2022/07/16 05:59:02;;;;;;;5.22;1.02;;;;;;;23.91;100.00;99690.63;1711176;82;21007;-60
2022/07/16 06:01:29;;;;;;;2.72;1.40;;;;;;;24.00;100.00;99694.58;1706484;82;21083;-60
2022/07/16 06:03:56;;;;;;;3.02;1.15;;;;;;;23.80;100.00;99688.17;1715433;83;21101;-61
2022/07/16 06:06:23;;;;;;;3.83;1.37;;;;;;;23.91;100.00;99687.84;1678459;85;21130;-60
2022/07/16 06:08:49;;;;;;;2.25;0.98;;;;;;;24.19;100.00;99683.55;1686581;85;21031;-60
2022/07/16 06:11:17;;;;;;;2.00;0.95;;;;;;;24.16;100.00;99683.66;1689139;85;21529;-60
2022/07/16 06:13:44;;;;;;;4.55;1.12;;;;;;;24.18;100.00;99678.56;1675057;85;21557;-60
2022/07/16 06:16:12;;;;;;;3.55;1.10;;;;;;;24.42;100.00;99678.88;1675802;85;21121;-60
2022/07/16 06:18:38;;;;;;;1.72;0.90;;;;;;;24.65;100.00;99693.69;1693987;84;21070;-60
2022/07/16 06:21:06;;;;;;;2.90;1.20;;;;;;;24.79;100.00;99683.42;1684974;84;21042;-60
2022/07/16 06:23:32;;;;;;;2.12;0.93;;;;;;;24.91;100.00;99686.06;1693663;83;21054;-60
2022/07/16 06:25:59;;;;;;;1.72;0.88;;;;;;;24.78;100.00;99687.37;1710063;83;21017;-61
2022/07/16 06:28:25;;;;;;;3.30;0.70;;;;;;;25.12;95.28;99689.83;1708242;83;21599;-61
2022/07/16 06:30:52;;;;;;;2.30;0.85;;;;;;;25.35;79.54;99696.82;1709912;83;21014;-62
2022/07/16 06:33:19;;;;;;;5.37;0.95;;;;;;;25.48;82.72;99696.84;1702935;83;21037;-61
2022/07/16 06:35:46;;;;;;;2.30;0.88;;;;;;;25.60;70.82;99696.70;1711943;83;21037;-62
2022/07/16 06:38:13;;;;;;;3.47;0.88;;;;;;;25.91;66.00;99692.80;1704904;83;21181;-61
2022/07/16 06:40:44;;;;;;;1.85;0.65;;;;;;;25.95;67.17;99697.27;1703337;83;21024;-62
2022/07/16 06:43:11;;;;;;;1.67;0.60;;;;;;;26.32;61.67;99697.44;1708054;83;21041;-62
2022/07/16 06:45:38;;;;;;;2.15;0.70;;;;;;;26.79;63.27;99697.41;1711910;83;21469;-62
2022/07/16 06:48:05;;;;;;;2.42;0.60;;;;;;;27.09;57.87;99690.63;1706782;83;21017;-63
2022/07/16 06:50:32;;;;;;;3.55;0.78;;;;;;;27.07;57.04;99689.39;1706565;83;21107;-62
2022/07/16 06:52:58;;;;;;;3.25;0.70;;;;;;;26.81;56.80;99696.46;1712322;83;21045;-61
2022/07/16 06:55:25;;;;;;;3.83;0.70;;;;;;;26.56;57.51;99698.95;1699672;83;21073;-61
2022/07/16 06:57:52;;;;;;;2.27;0.65;;;;;;;26.46;57.06;99699.62;1710291;83;21591;-62
2022/07/16 07:00:19;;;;;;;3.27;0.90;;;;;;;26.88;63.26;99702.16;1702362;83;21116;-62
2022/07/16 07:04:44;;;;;;;;;;;;;;;27.72;51.54;99701.41;1799419;79;23317;-60
2022/07/16 07:07:11;;;;;;;;;;;;;;;27.20;51.40;99694.34;1767553;80;20408;-60
2022/07/16 07:09:38;;;;;;;4.22;0.72;;;;;;;26.97;59.08;99702.06;1782277;79;20127;-61
2022/07/16 07:12:05;;;;;;;1.87;0.72;;;;;;;26.71;56.43;99701.52;1770935;80;20975;-60
2022/07/16 07:14:32;;;;;;;1.27;0.55;;;;;;;26.73;57.26;99701.16;1773141;79;21221;-60
2022/07/16 07:16:58;;;;;;;3.12;1.07;;;;;;;27.25;60.94;99688.98;1778435;79;20988;-60
2022/07/16 07:43:35;;;;;;;3.83;0.68;;;;;;;29.38;43.43;99668.05;1761195;79;22500;-60
2022/07/16 07:46:02;;;;;;;4.42;0.70;;;;;;;28.52;45.72;99674.56;1737931;82;21578;-60
2022/07/16 07:48:30;;;;;;;3.60;1.10;;;;;;;28.41;47.68;99675.73;1731824;82;21084;-60
2022/07/16 07:50:57;;;;;;;3.75;0.60;;;;;;;28.70;48.28;99677.46;1767274;80;20955;-62
2022/07/16 07:53:23;;;;;;;2.00;0.75;;;;;;;28.73;46.48;99683.70;1731978;82;21436;-58
2022/07/16 07:55:50;;;;;;;2.92;0.60;;;;;;;28.46;47.71;99678.14;1748183;80;20956;-59
2022/07/16 07:58:16;;;;;;;1.80;0.60;;;;;;;28.52;50.37;99680.16;1732459;81;21023;-59
2022/07/16 08:00:43;;;;;;;4.15;0.70;;;;;;;28.97;47.36;99675.16;1732324;82;20955;-60
2022/07/16 08:03:10;;;;;;;3.00;0.70;;;;;;;29.46;45.91;99666.86;1730616;80;21615;-61
2022/07/16 08:05:36;;;;;;;2.20;0.90;;;;;;;29.84;43.62;99661.05;1740356;82;21001;-62
2022/07/16 08:08:04;;;;;;;2.17;0.60;;;;;;;29.79;44.07;99664.25;1745927;82;21207;-62
2022/07/16 08:10:30;;;;;;;2.40;0.50;;;;;;;29.85;43.16;99666.88;1714359;82;20963;-60
2022/07/16 08:12:56;;;;;;;3.50;0.70;;;;;;;29.94;41.98;99668.65;1736728;82;21487;-59
2022/07/16 08:15:23;;;;;;;2.75;0.82;;;;;;;30.13;42.00;99666.82;1731417;82;21107;-59
2022/07/16 08:17:49;;;;;;;2.08;0.70;;;;;;;30.39;42.73;99671.77;1742393;82;21070;-60
2022/07/16 08:20:16;;;;;;;1.80;0.45;;;;;;;30.40;42.19;99671.94;1681081;83;21003;-60
2022/07/16 08:22:43;;;;;;;1.95;0.50;;;;;;;30.26;45.33;99664.36;1673554;84;21052;-63
2022/07/16 08:27:54;;;;;;;0.90;0.60;;;;;;;30.53;43.67;99666.13;1685105;84;21075;-61
2022/07/16 08:30:21;;;;;;;1.85;0.57;;;;;;;30.80;43.96;99664.98;1690664;84;21015;-60
2022/07/16 08:32:48;;;;;;;2.15;0.60;;;;;;;31.04;43.22;99654.23;1726116;81;21487;-66
2022/07/16 08:35:15;;;;;;;4.05;0.90;;;;;;;30.83;41.88;99655.73;1735743;80;20973;-64
2022/07/16 08:37:43;;;;;;;3.65;0.70;;;;;;;30.34;40.56;99658.94;1747005;80;21518;-67
2022/07/16 08:40:14;;;;;;;2.77;0.90;;;;;;;30.02;42.96;99661.83;1743923;80;21047;-65
2022/07/16 08:42:40;;;;;;;2.87;0.88;;;;;;;30.09;41.82;99650.58;1729321;80;21151;-68
2022/07/16 08:45:08;;;;;;;1.72;0.80;;;;;;;29.68;45.52;99659.24;1732390;81;21436;-68
2022/07/16 08:47:37;;;;;;;4.12;1.15;;;;;;;29.50;47.15;99658.45;1724438;81;21912;-69
2022/07/16 08:50:09;;;;;;;2.47;0.82;;;;;;;29.34;48.44;99656.02;1724774;80;20992;-69
2022/07/16 08:52:39;;;;;;;3.22;0.93;;;;;;;29.26;46.18;99657.80;1730953;81;21011;-67
2022/07/16 08:55:07;;;;;;;1.87;0.70;;;;;;;28.76;45.47;99658.30;1724392;82;20982;-67
2022/07/16 08:57:34;;;;;;;1.98;0.90;;;;;;;28.35;45.77;99654.88;1726813;82;20959;-64
2022/07/16 09:00:00;;;;;;;2.72;1.00;;;;;;;27.91;44.14;99641.84;1708060;82;21024;-64
2022/07/16 09:02:27;;;;;;;2.25;0.55;;;;;;;27.39;48.42;99643.58;1727777;82;21006;-64
2022/07/16 09:04:53;;;;;;;5.05;0.98;;;;;;;27.43;49.59;99647.22;1715655;83;20977;-63
2022/07/16 09:07:21;;;;;;;3.35;1.00;;;;;;;27.51;48.11;99641.94;1715175;82;21591;-65
2022/07/16 09:09:48;;;;;;;4.92;2.33;;;;;;;27.42;53.38;99649.20;1716530;82;20970;-63
2022/07/16 09:12:44;;;;;;;3.67;0.70;;;;;;;27.43;45.65;99643.02;1716600;82;21065;-67
2022/07/16 09:15:33;;;;;;;2.92;0.70;;;;;;;27.09;47.79;99641.73;1684561;81;20959;-64
2022/07/16 09:18:14;;;;;;;2.45;0.90;;;;;;;26.73;49.08;99653.09;1730739;82;21048;-66
2022/07/16 09:20:58;;;;;;;15.25;11.93;;;;;;;26.22;46.67;99652.84;1735774;82;21433;-66
2022/07/16 09:23:31;;;;;;;63.25;56.80;;;;;;;25.80;48.99;99648.61;1726497;82;21093;-71
2022/07/16 09:26:10;;;;;;;38.95;32.33;;;;;;;25.50;46.54;99645.16;1736640;82;20983;-66
2022/07/16 09:28:48;;;;;;;3.98;2.50;;;;;;;25.25;48.30;99639.75;1729734;82;21009;-65
2022/07/16 09:31:40;;;;;;;1.98;0.80;;;;;;;25.08;47.33;99639.62;1717076;82;21498;-63
2022/07/16 09:34:10;;;;;;;2.47;0.88;;;;;;;24.94;49.82;99639.98;1726760;82;21081;-63
2022/07/16 09:36:38;;;;;;;2.52;0.80;;;;;;;24.53;57.27;99644.31;1719021;82;21415;-63
2022/07/16 09:39:07;;;;;;;3.50;0.78;;;;;;;24.27;65.33;99647.16;1719210;82;21060;-60
2022/07/16 09:41:45;;;;;;;2.67;0.88;;;;;;;24.30;76.08;99633.70;1723768;82;21029;-66
2022/07/16 09:44:19;;;;;;;3.87;1.30;;;;;;;24.49;82.73;99631.72;1732261;82;21102;-65
2022/07/16 09:47:10;;;;;;;2.87;0.90;;;;;;;24.62;74.54;99640.13;1737211;82;20979;-63
2022/07/16 09:49:40;;;;;;;3.60;0.98;;;;;;;24.45;72.22;99633.62;1705478;83;21089;-64
2022/07/16 09:52:08;;;;;;;3.92;0.85;;;;;;;24.36;72.35;99635.02;1729130;82;20943;-57
2022/07/16 09:54:37;;;;;;;2.58;0.82;;;;;;;24.23;72.64;99636.54;1729356;82;21488;-70
2022/07/16 09:57:15;;;;;;;2.62;1.05;;;;;;;24.08;75.19;99644.34;1724647;82;21010;-69
2022/07/16 09:59:43;;;;;;;4.28;1.02;;;;;;;23.96;81.14;99637.50;1731499;82;21027;-63
2022/07/16 10:02:09;;;;;;;2.47;0.90;;;;;;;24.12;88.29;99641.06;1734830;82;20958;-63
2022/07/16 10:04:36;;;;;;;3.30;1.05;;;;;;;24.34;80.15;99633.98;1726663;82;21050;-60
2022/07/16 10:07:03;;;;;;;4.97;1.32;;;;;;;24.47;77.46;99638.83;1718415;82;20987;-63
2022/07/16 10:09:30;;;;;;;3.58;0.90;;;;;;;24.53;84.76;99637.36;1712906;82;21070;-60
2022/07/16 10:11:59;;;;;;;2.30;0.80;;;;;;;24.59;73.52;99633.91;1728878;82;21379;-60
2022/07/16 10:14:26;;;;;;;2.15;1.00;;;;;;;24.51;78.22;99629.97;1689652;82;21061;-60
2022/07/16 10:16:59;;;;;;;2.67;0.95;;;;;;;24.55;80.26;99625.29;1724230;82;21457;-61
2022/07/16 10:19:36;;;;;;;4.33;0.98;;;;;;;24.63;79.69;99631.19;1724060;82;20983;-63
2022/07/16 10:22:24;;;;;;;2.12;0.72;;;;;;;24.74;68.68;99626.05;1723778;82;21595;-62
2022/07/16 10:24:53;;;;;;;4.80;0.90;;;;;;;24.77;66.90;99627.29;1727182;82;21505;-62
2022/07/16 10:27:30;;;;;;;1.80;0.80;;;;;;;24.82;68.96;99621.44;1726733;81;21474;-61
2022/07/16 10:30:24;;;;;;;2.00;0.80;;;;;;;24.82;64.02;99614.47;1685845;84;21012;-63
2022/07/16 10:33:06;;;;;;;2.65;0.90;;;;;;;24.74;59.33;99616.31;1660141;85;21060;-61
2022/07/16 10:35:48;;;;;;;3.20;0.90;;;;;;;24.70;57.64;99607.09;1687812;83;21066;-61
2022/07/16 10:38:27;;;;;;;4.28;0.85;;;;;;;24.53;53.72;99599.79;1686305;83;21067;-59
2022/07/16 10:41:15;;;;;;;2.50;0.85;;;;;;;24.37;54.61;99606.84;1679278;84;21065;-61
2022/07/16 10:43:43;;;;;;;2.10;0.82;;;;;;;24.33;66.46;99597.63;1680924;84;21083;-64
2022/07/16 10:46:11;;;;;;;2.08;1.00;;;;;;;24.42;64.91;99603.75;1695770;83;21552;-61
2022/07/16 10:48:43;;;;;;;1.80;0.80;;;;;;;24.55;67.11;99600.24;1718859;83;21075;-62
2022/07/16 10:51:27;;;;;;;4.30;1.00;;;;;;;24.67;66.36;99605.05;1709381;83;21035;-63
2022/07/16 10:54:17;;;;;;;1.85;0.80;;;;;;;24.81;59.19;99609.27;1709088;83;21042;-63
2022/07/16 10:56:50;;;;;;;1.50;0.70;;;;;;;24.82;57.43;99601.95;1709861;83;21396;-63
2022/07/16 10:59:20;;;;;;;2.15;0.90;;;;;;;24.72;57.49;99599.77;1715399;83;21019;-65
2022/07/16 11:01:49;;;;;;;2.72;1.00;;;;;;;24.67;65.12;99607.02;1706093;83;21437;-65
2022/07/16 11:04:27;;;;;;;4.00;0.90;;;;;;;24.85;63.18;99601.23;1703785;83;21530;-61
2022/07/16 11:06:54;;;;;;;1.82;0.90;;;;;;;25.01;58.53;99597.73;1698495;83;21039;-63
2022/07/16 11:09:29;;;;;;;2.40;1.10;;;;;;;24.99;54.76;99596.50;1723542;83;21628;-63
2022/07/16 11:11:56;;;;;;;3.25;0.90;;;;;;;24.76;56.89;99600.03;1655726;85;20998;-65
2022/07/16 11:14:31;;;;;;;5.75;0.98;;;;;;;24.65;54.90;99597.66;1698100;83;21057;-65
2022/07/16 11:16:58;;;;;;;2.95;0.90;;;;;;;24.67;60.66;99588.34;1662502;85;20979;-65
2022/07/16 11:19:25;;;;;;;2.50;1.10;;;;;;;24.80;61.42;99590.97;1701768;83;21106;-64
2022/07/16 11:21:53;;;;;;;2.85;1.05;;;;;;;24.95;57.07;99582.52;1716904;83;21003;-64
2022/07/16 11:24:20;;;;;;;10.28;5.33;;;;;;;25.07;59.55;99582.34;1708685;83;21532;-64
2022/07/16 11:26:48;;;;;;;12.73;9.65;;;;;;;25.14;59.49;99583.85;1720417;83;21019;-64
2022/07/16 11:29:14;;;;;;;42.75;37.13;;;;;;;25.34;58.00;99580.97;1710151;83;21547;-66
2022/07/16 11:31:41;;;;;;;8.48;5.20;;;;;;;25.55;56.51;99583.53;1716953;83;21023;-63
2022/07/16 11:34:10;;;;;;;4.58;2.20;;;;;;;25.65;53.40;99582.08;1727393;83;21011;-62
2022/07/16 11:36:42;;;;;;;3.58;1.50;;;;;;;25.48;55.88;99574.23;1719747;83;20999;-63
2022/07/16 11:39:10;;;;;;;2.77;1.20;;;;;;;25.25;55.91;99579.86;1711428;83;21405;-63
2022/07/16 11:41:43;;;;;;;2.15;0.80;;;;;;;25.07;59.29;99580.14;1715468;83;21073;-65
2022/07/16 11:44:17;;;;;;;4.03;1.00;;;;;;;24.99;64.32;99587.56;1733145;81;21831;-65
2022/07/16 11:46:49;;;;;;;2.35;1.00;;;;;;;24.87;58.19;99585.56;1733288;82;20920;-64
2022/07/16 11:49:31;;;;;;;3.20;1.00;;;;;;;24.73;57.61;99581.87;1738078;82;21082;-64
2022/07/16 11:52:01;;;;;;;2.40;0.90;;;;;;;24.59;62.44;99583.81;1719298;82;20963;-62
2022/07/16 11:54:30;;;;;;;2.08;0.75;;;;;;;24.49;60.29;99584.41;1710571;83;21556;-65
2022/07/16 11:56:57;;;;;;;2.52;0.80;;;;;;;24.40;65.22;99586.64;1715250;82;20947;-64
2022/07/16 11:59:32;;;;;;;1.60;0.85;;;;;;;24.38;60.00;99583.98;1727643;82;21001;-64
2022/07/16 12:02:05;;;;;;;2.15;1.00;;;;;;;24.43;61.23;99580.33;1723904;82;20986;-63
2022/07/16 12:04:45;;;;;;;2.35;0.90;;;;;;;24.62;64.57;99579.51;1723622;82;21021;-62
2022/07/16 12:07:29;;;;;;;2.22;0.70;;;;;;;24.70;60.13;99575.66;1711609;82;20970;-61
2022/07/16 12:09:58;;;;;;;3.47;1.00;;;;;;;24.76;58.28;99570.03;1719947;82;21010;-64
2022/07/16 12:12:31;;;;;;;2.80;0.88;;;;;;;24.87;62.16;99572.42;1725349;82;20959;-64
2022/07/16 12:15:09;;;;;;;2.83;0.80;;;;;;;24.95;64.36;99565.00;1718106;82;21481;-65